Terminal Aerodrome Forecast
Issued by NWS

Home | Current Version | Previous Version | Text Only | Print | Product List | Glossary On
Versions: 1 2 3 4 5 6 7 8 9 10 11 12 13 14 15
000
FTUS44 KLZK 300500
TAFLLQ
TAF
KLLQ 300539Z 3006/3106 00000KT P6SM OVC250
     FM301400 15004KT P6SM SCT080 OVC120
     FM302200 01005KT P6SM VCSH BKN060 OVC100
     FM310200 05003KT P6SM OVC050 PROB30 3102/3106 5SM -SHRA BR=

USA.gov is the U.S. government's official web portal to all federal, state and local government web resources and services.